Time;durP1;ratioP1;P1;durP2;ratioP2;P2;SDS_P1;SDS_P2;PMS_P1;PMS_P2;Temp;Humidity;BMP_temperature;BMP_pressure;BME280_temperature;BME280_humidity;BME280_pressure;Samples;Min_cycle;Max_cycle;Signal;HPM_P1;HPM_P2
2021/05/11 00:01:10;;;;;;;7.10;3.50;;;15.60;99.90;;;;;;4989078;28;20029;-76
2021/05/11 00:03:35;;;;;;;4.32;3.30;;;15.60;99.90;;;;;;5011415;28;20476;-76
2021/05/11 00:06:01;;;;;;;5.50;2.92;;;15.50;99.90;;;;;;5002911;28;20113;-74
2021/05/11 00:08:27;;;;;;;11.55;3.40;;;15.50;99.90;;;;;;4992374;28;20395;-76
2021/05/11 00:10:53;;;;;;;3.00;2.80;;;15.40;99.90;;;;;;4991460;28;20058;-76
2021/05/11 00:13:19;;;;;;;6.45;3.50;;;15.40;99.90;;;;;;5012103;28;20024;-75
2021/05/11 00:15:45;;;;;;;3.25;2.55;;;15.40;99.90;;;;;;5009765;28;20024;-77
2021/05/11 00:18:11;;;;;;;3.88;2.47;;;15.40;99.90;;;;;;5012328;28;20026;-76
2021/05/11 00:20:37;;;;;;;4.90;2.75;;;15.40;99.90;;;;;;5006341;28;20083;-74
2021/05/11 00:23:03;;;;;;;4.45;2.70;;;15.40;99.90;;;;;;4991085;28;20037;-77
2021/05/11 00:25:29;;;;;;;3.05;2.47;;;15.40;99.90;;;;;;4988810;28;20396;-77
2021/05/11 00:27:54;;;;;;;3.35;2.63;;;15.40;99.90;;;;;;4992073;28;20034;-75
2021/05/11 00:30:20;;;;;;;2.85;2.55;;;15.40;99.90;;;;;;4999861;28;20022;-76
2021/05/11 00:32:46;;;;;;;3.22;2.55;;;15.50;99.90;;;;;;5005452;28;20034;-76
2021/05/11 00:35:12;;;;;;;7.70;2.67;;;15.50;99.90;;;;;;4993947;28;20381;-78
2021/05/11 00:37:37;;;;;;;7.60;3.88;;;15.40;99.90;;;;;;4994908;28;20026;-76
2021/05/11 00:40:05;;;;;;;6.25;3.13;;;15.40;99.90;;;;;;5012759;28;20026;-76
2021/05/11 00:42:31;;;;;;;9.95;3.10;;;15.30;99.90;;;;;;4990112;28;20496;-75
2021/05/11 00:44:57;;;;;;;6.28;2.53;;;15.30;99.90;;;;;;4992454;28;20064;-76
2021/05/11 00:47:23;;;;;;;6.28;3.05;;;15.30;99.90;;;;;;4987952;28;20018;-76
2021/05/11 00:49:49;;;;;;;3.30;2.83;;;15.20;99.90;;;;;;5009954;28;20037;-76
2021/05/11 00:52:15;;;;;;;6.55;2.25;;;15.30;99.90;;;;;;5008813;28;20472;-76
2021/05/11 00:54:41;;;;;;;10.65;2.83;;;15.30;99.90;;;;;;5011305;28;20026;-76
2021/05/11 00:57:08;;;;;;;6.20;2.65;;;15.50;99.90;;;;;;5008806;28;20029;-78
2021/05/11 00:59:33;;;;;;;2.88;2.03;;;15.60;99.90;;;;;;5005708;28;20022;-76
2021/05/11 01:02:03;;;;;;;3.80;2.17;;;15.70;99.90;;;;;;4992605;28;20088;-75
2021/05/11 01:04:29;;;;;;;6.60;2.00;;;15.80;99.90;;;;;;5000807;28;20445;-77
2021/05/11 01:06:55;;;;;;;9.18;2.30;;;15.80;99.90;;;;;;5005919;28;20112;-76
2021/05/11 01:09:23;;;;;;;2.30;1.92;;;15.80;99.90;;;;;;5003246;28;20702;-76
2021/05/11 01:11:49;;;;;;;8.68;2.58;;;15.80;99.90;;;;;;4993974;28;20026;-76
2021/05/11 01:14:15;;;;;;;4.97;3.00;;;15.90;99.90;;;;;;5010363;28;20025;-76
2021/05/11 01:16:43;;;;;;;2.55;1.88;;;15.90;99.90;;;;;;4993280;28;20088;-76
2021/05/11 02:25:04;;;;;;;3.55;1.80;;;15.60;99.90;;;;;;5002796;28;20172;-76
2021/05/11 02:27:30;;;;;;;4.40;2.25;;;15.70;99.90;;;;;;5013059;28;20022;-74
2021/05/11 02:29:56;;;;;;;2.35;1.73;;;15.80;99.90;;;;;;5009353;28;20026;-76
2021/05/11 02:32:22;;;;;;;5.38;1.73;;;15.80;99.90;;;;;;5002134;28;20026;-76
2021/05/11 02:34:47;;;;;;;3.55;2.30;;;15.80;99.90;;;;;;5010670;28;20053;-76
2021/05/11 02:37:13;;;;;;;2.28;2.08;;;15.70;99.90;;;;;;5015327;28;20029;-77
2021/05/11 02:39:39;;;;;;;5.57;1.95;;;15.60;99.90;;;;;;5011132;28;20025;-75
2021/05/11 02:42:08;;;;;;;4.40;1.77;;;15.60;99.90;;;;;;5012372;28;20519;-76
2021/05/11 02:44:43;;;;;;;3.45;2.00;;;15.50;99.90;;;;;;5011648;28;20030;-76
2021/05/11 02:47:09;;;;;;;3.85;2.30;;;15.50;99.90;;;;;;4995151;28;20026;-76
2021/05/11 02:49:39;;;;;;;3.58;1.98;;;15.40;99.90;;;;;;5010634;28;20534;-77
2021/05/11 02:52:05;;;;;;;4.97;2.08;;;15.40;99.90;;;;;;5007055;28;20519;-77
2021/05/11 02:54:31;;;;;;;6.00;1.73;;;15.40;99.90;;;;;;5010947;28;20030;-76
2021/05/11 02:56:56;;;;;;;2.25;1.98;;;15.60;99.90;;;;;;5014567;28;20135;-76
2021/05/11 02:59:22;;;;;;;6.40;2.00;;;15.50;99.90;;;;;;4997697;28;20034;-76
2021/05/11 03:01:48;;;;;;;2.53;1.60;;;15.60;99.90;;;;;;4994180;28;20025;-76
2021/05/11 03:04:14;;;;;;;2.90;1.83;;;15.50;99.90;;;;;;4990308;28;20085;-77
2021/05/11 03:06:39;;;;;;;2.92;2.00;;;15.50;99.90;;;;;;4992560;28;20391;-76
2021/05/11 03:09:05;;;;;;;3.33;2.20;;;15.50;99.90;;;;;;4997869;28;20026;-76
2021/05/11 03:11:31;;;;;;;2.50;2.22;;;15.50;99.90;;;;;;5016048;28;20022;-76
2021/05/11 03:13:57;;;;;;;6.55;2.50;;;15.40;99.90;;;;;;5022259;28;20117;-75
2021/05/11 03:16:24;;;;;;;6.97;2.55;;;15.40;99.90;;;;;;5025191;28;20488;-76
2021/05/11 03:18:50;;;;;;;4.65;2.63;;;15.30;99.90;;;;;;5024272;28;20025;-75
2021/05/11 03:21:15;;;;;;;2.53;1.98;;;15.30;99.90;;;;;;5003000;28;20030;-76
2021/05/11 03:23:41;;;;;;;3.47;2.75;;;15.30;99.90;;;;;;5016903;28;20026;-76
2021/05/11 03:26:07;;;;;;;5.25;2.85;;;15.40;99.90;;;;;;5000440;28;20480;-77
2021/05/11 03:28:33;;;;;;;5.45;2.78;;;15.30;99.90;;;;;;5019147;28;20022;-79
2021/05/11 03:30:58;;;;;;;6.03;2.55;;;15.20;99.90;;;;;;5004312;28;20021;-76
2021/05/11 03:33:24;;;;;;;5.40;2.55;;;15.20;99.90;;;;;;4997979;28;20018;-75
2021/05/11 03:35:50;;;;;;;7.50;3.28;;;15.20;99.90;;;;;;5013790;28;20087;-76
2021/05/11 03:38:16;;;;;;;6.20;2.88;;;15.20;99.90;;;;;;5008871;28;20037;-76
2021/05/11 03:40:41;;;;;;;3.80;2.28;;;15.10;99.90;;;;;;4986078;28;21661;-77
2021/05/11 03:43:21;;;;;;;3.88;2.97;;;15.10;99.90;;;;;;4992755;28;20076;-77
2021/05/11 03:45:53;;;;;;;5.55;3.33;;;15.20;99.90;;;;;;5012524;28;20029;-76
2021/05/11 03:48:18;;;;;;;3.20;2.50;;;15.10;99.90;;;;;;5005740;28;20040;-77
2021/05/11 03:50:44;;;;;;;5.93;2.67;;;15.20;99.90;;;;;;4996710;28;20388;-77
2021/05/11 03:53:10;;;;;;;8.40;3.13;;;15.30;99.90;;;;;;4993224;28;20096;-76
2021/05/11 03:55:36;;;;;;;5.35;2.83;;;15.30;99.90;;;;;;5009284;28;20062;-76
2021/05/11 03:58:02;;;;;;;6.18;3.42;;;15.40;99.90;;;;;;4995798;28;20539;-76
2021/05/11 04:00:28;;;;;;;4.72;2.53;;;15.50;99.90;;;;;;5011239;28;20399;-77
2021/05/11 04:02:53;;;;;;;4.03;2.85;;;15.50;99.90;;;;;;4994590;28;20097;-76
2021/05/11 04:05:20;;;;;;;5.78;3.20;;;15.60;99.90;;;;;;5010656;28;20028;-76
2021/05/11 04:07:49;;;;;;;4.88;2.55;;;15.80;99.90;;;;;;5007136;28;20065;-77
2021/05/11 04:17:56;;;;;;;4.00;2.65;;;15.60;99.90;;;;;;5011959;28;20049;-75
2021/05/11 04:20:22;;;;;;;8.70;3.38;;;15.60;99.90;;;;;;4985324;28;20026;-76
2021/05/11 04:22:48;;;;;;;4.85;3.17;;;15.60;99.90;;;;;;4987054;28;20026;-75
2021/05/11 04:25:15;;;;;;;9.40;4.22;;;15.70;99.90;;;;;;5007302;28;20688;-75
2021/05/11 04:27:41;;;;;;;4.00;3.55;;;15.80;99.90;;;;;;5006045;28;20030;-75
2021/05/11 04:30:07;;;;;;;4.00;3.08;;;15.90;99.90;;;;;;4994448;28;20116;-76
2021/05/11 04:32:33;;;;;;;8.73;3.63;;;15.90;99.90;;;;;;4985345;28;20037;-77
2021/05/11 04:34:59;;;;;;;7.20;3.35;;;16.00;99.90;;;;;;4994354;28;20030;-76
2021/05/11 04:37:25;;;;;;;5.80;3.50;;;16.00;99.90;;;;;;5010050;28;20036;-76
2021/05/11 04:39:52;;;;;;;8.35;3.53;;;16.00;99.90;;;;;;4993136;28;20033;-76
2021/05/11 04:42:18;;;;;;;10.60;2.65;;;15.90;99.90;;;;;;4992285;28;20096;-76
2021/05/11 04:44:44;;;;;;;5.82;3.83;;;16.00;99.90;;;;;;4996441;28;20480;-75
2021/05/11 04:49:35;;;;;;;7.15;4.15;;;16.30;99.90;;;;;;5009225;28;20026;-75
2021/05/11 04:52:01;;;;;;;8.75;3.67;;;16.30;99.90;;;;;;5012422;28;20029;-77
2021/05/11 04:54:27;;;;;;;9.48;3.75;;;16.40;99.90;;;;;;5011970;28;20021;-77
2021/05/11 04:56:53;;;;;;;8.20;3.97;;;16.50;99.90;;;;;;5006858;28;20034;-77
2021/05/11 04:59:19;;;;;;;3.95;3.22;;;16.50;99.90;;;;;;4998506;28;20095;-77
2021/05/11 05:01:47;;;;;;;5.72;2.95;;;16.60;99.90;;;;;;5012481;28;20101;-77
2021/05/11 05:04:14;;;;;;;3.40;3.08;;;16.70;99.90;;;;;;4992652;28;20026;-77
2021/05/11 05:06:40;;;;;;;11.90;3.83;;;16.80;99.90;;;;;;4996802;28;20018;-78
2021/05/11 05:09:06;;;;;;;6.85;3.58;;;17.00;99.90;;;;;;5014451;28;20030;-76
2021/05/11 05:11:34;;;;;;;10.13;5.30;;;17.30;99.90;;;;;;4997728;28;20114;-76
2021/05/11 05:14:00;;;;;;;7.97;4.45;;;17.30;99.90;;;;;;4987291;28;20440;-76
2021/05/11 05:16:26;;;;;;;8.05;3.97;;;17.40;99.90;;;;;;5007133;28;20026;-76
2021/05/11 05:18:51;;;;;;;7.78;3.95;;;17.60;99.90;;;;;;5011196;28;20034;-75
2021/05/11 05:21:18;;;;;;;9.95;3.67;;;17.60;99.90;;;;;;4988204;28;20141;-76
2021/05/11 05:23:47;;;;;;;9.30;3.63;;;17.70;99.90;;;;;;5007912;28;20095;-78
2021/05/11 05:26:17;;;;;;;9.23;3.63;;;17.90;99.90;;;;;;5009270;28;20017;-76
2021/05/11 05:28:43;;;;;;;7.13;4.50;;;18.10;99.90;;;;;;5004275;28;20041;-80
2021/05/11 05:31:09;;;;;;;5.35;4.15;;;18.30;99.90;;;;;;5011604;28;20017;-76
2021/05/11 05:33:40;;;;;;;10.55;3.70;;;18.30;99.90;;;;;;5013316;28;20010;-76
2021/05/11 05:36:07;;;;;;;15.40;4.57;;;18.50;99.90;;;;;;4995750;28;20030;-77
2021/05/11 05:38:35;;;;;;;7.93;4.97;;;18.60;99.90;;;;;;5001075;28;20026;-76
2021/05/11 05:41:05;;;;;;;5.63;3.50;;;18.60;99.90;;;;;;4999279;28;20081;-76
2021/05/11 05:43:31;;;;;;;9.20;3.92;;;18.80;99.90;;;;;;5001067;28;20030;-75
2021/05/11 05:45:57;;;;;;;6.97;3.45;;;19.10;99.90;;;;;;5000964;28;20026;-76
2021/05/11 05:48:23;;;;;;;9.02;3.92;;;19.20;99.90;;;;;;4999501;28;20057;-80
2021/05/11 05:51:00;;;;;;;4.88;3.53;;;19.20;99.90;;;;;;5029428;28;20037;-78
2021/05/11 05:53:34;;;;;;;10.95;3.78;;;19.30;99.90;;;;;;5015691;28;20029;-78
2021/05/11 05:56:02;;;;;;;9.07;3.85;;;19.30;99.90;;;;;;5031189;28;20026;-77
2021/05/11 05:58:28;;;;;;;9.60;4.15;;;19.40;99.90;;;;;;5011959;28;20045;-76
2021/05/11 06:00:58;;;;;;;15.13;4.22;;;19.40;99.90;;;;;;5025214;28;20019;-75
2021/05/11 06:03:36;;;;;;;10.70;4.37;;;19.50;99.90;;;;;;4978164;28;20042;-75
2021/05/11 06:06:07;;;;;;;9.95;5.80;;;19.50;99.90;;;;;;4997578;28;20028;-76
2021/05/11 06:08:34;;;;;;;18.83;5.90;;;19.60;99.90;;;;;;5017578;28;20030;-77
2021/05/11 06:19:34;;;;;;;22.08;4.70;;;20.10;99.90;;;;;;4999825;28;20053;-75
2021/05/11 06:22:00;;;;;;;7.63;4.53;;;20.20;99.90;;;;;;4989036;28;20038;-76
2021/05/11 06:24:26;;;;;;;4.50;3.80;;;20.20;99.90;;;;;;5018400;28;20037;-78
2021/05/11 06:27:38;;;;;;;8.60;4.60;;;20.20;99.90;;;;;;4998125;28;20120;-79
2021/05/11 06:30:33;;;;;;;8.63;3.83;;;20.30;99.90;;;;;;4908926;29;20035;-78
2021/05/11 06:33:15;;;;;;;9.48;3.83;;;20.40;99.90;;;;;;4945984;28;20026;-69
2021/05/11 06:35:41;;;;;;;;;;;20.40;99.90;;;;;;5010426;28;20481;-70
2021/05/11 06:38:07;;;;;;;5.18;3.78;;;20.50;99.90;;;;;;5014056;28;19968;-70
2021/05/11 06:40:36;;;;;;;9.77;3.80;;;20.50;99.90;;;;;;5009865;28;20029;-68
2021/05/11 06:43:01;;;;;;;12.57;4.18;;;20.60;99.90;;;;;;5012565;28;20112;-69
2021/05/11 06:48:14;;;;;;;7.57;4.05;;;20.80;99.90;;;;;;5012210;28;20041;-69
2021/05/11 06:53:38;;;;;;;13.13;4.45;;;20.90;99.90;;;;;;5008343;28;20447;-69
2021/05/11 06:56:07;;;;;;;16.00;4.82;;;20.90;99.90;;;;;;5008948;28;20060;-68
2021/05/11 06:58:33;;;;;;;7.95;4.38;;;21.00;99.90;;;;;;5010956;28;20018;-69
2021/05/11 07:00:59;;;;;;;6.50;3.70;;;21.10;99.90;;;;;;5008540;28;20503;-68
2021/05/11 07:03:24;;;;;;;9.13;4.35;;;21.20;99.90;;;;;;5013801;28;20022;-69
2021/05/11 07:05:52;;;;;;;9.85;4.50;;;21.30;99.90;;;;;;4995261;28;20033;-68
2021/05/11 07:08:29;;;;;;;9.70;4.47;;;21.40;99.90;;;;;;5013743;28;20567;-69
2021/05/11 07:10:57;;;;;;;18.38;4.65;;;21.50;99.90;;;;;;5006227;28;20022;-70
2021/05/11 07:13:23;;;;;;;9.80;4.28;;;21.40;99.90;;;;;;5007044;28;20033;-69
2021/05/11 07:15:50;;;;;;;11.43;4.60;;;21.40;99.90;;;;;;4997189;28;20384;-69
2021/05/11 07:18:24;;;;;;;15.60;4.22;;;21.20;99.90;;;;;;5005839;28;20527;-68
2021/05/11 07:20:57;;;;;;;11.32;4.40;;;21.10;99.90;;;;;;5006560;28;20038;-69
2021/05/11 07:23:23;;;;;;;11.57;4.38;;;21.20;99.90;;;;;;5013916;28;20014;-71
2021/05/11 07:30:55;;;;;;;12.32;5.75;;;21.10;99.90;;;;;;5009147;28;20093;-71
2021/05/11 07:33:24;;;;;;;11.50;3.22;;;21.10;99.90;;;;;;4995576;28;20022;-69
2021/05/11 07:35:50;;;;;;;8.02;3.72;;;21.20;99.90;;;;;;5009871;28;20030;-70
2021/05/11 07:38:16;;;;;;;5.72;3.70;;;21.20;99.90;;;;;;5009466;28;20029;-70
2021/05/11 07:40:42;;;;;;;7.75;4.10;;;21.30;99.90;;;;;;5006329;28;20037;-69
2021/05/11 07:43:09;;;;;;;14.82;4.00;;;21.30;99.90;;;;;;4994957;28;20102;-67
2021/05/11 08:17:38;;;;;;;12.35;4.95;;;22.70;99.90;;;;;;5006889;28;20214;-71
2021/05/11 08:23:07;;;;;;;7.97;4.28;;;22.80;99.90;;;;;;5005969;28;20408;-68
2021/05/11 08:28:17;;;;;;;14.43;4.38;;;22.40;99.90;;;;;;5019363;28;20137;-70
2021/05/11 08:30:43;;;;;;;13.57;3.83;;;22.00;99.90;;;;;;5016474;28;20053;-68
2021/05/11 08:33:08;;;;;;;8.80;4.43;;;21.70;99.90;;;;;;4998214;28;20026;-68
2021/05/11 08:35:34;;;;;;;8.40;3.53;;;21.40;99.90;;;;;;5016080;28;20022;-68
2021/05/11 08:38:00;;;;;;;8.27;3.88;;;21.30;99.90;;;;;;5019670;28;20108;-67
2021/05/11 08:40:26;;;;;;;8.68;3.95;;;21.20;99.90;;;;;;5018256;28;20030;-68
2021/05/11 08:42:52;;;;;;;6.30;3.97;;;21.00;99.90;;;;;;4998312;28;20029;-69
2021/05/11 08:45:19;;;;;;;7.60;3.22;;;20.90;99.90;;;;;;5011121;28;20026;-68
2021/05/11 08:47:52;;;;;;;18.15;5.00;;;20.90;99.90;;;;;;5008862;28;20026;-68
2021/05/11 08:50:23;;;;;;;7.25;3.80;;;20.90;99.90;;;;;;4993815;28;20396;-70
2021/05/11 09:16:25;;;;;;;10.43;4.25;;;21.20;99.90;;;;;;5010571;28;20092;-69
2021/05/11 09:26:34;;;;;;;19.45;5.13;;;21.10;99.90;;;;;;4999312;28;20148;-67
2021/05/11 09:29:06;;;;;;;16.92;4.53;;;21.20;99.90;;;;;;5010952;28;20055;-68
2021/05/11 09:35:07;;;;;;;8.38;6.25;;;21.60;99.90;;;;;;5009581;28;20025;-69
2021/05/11 10:41:35;;;;;;;12.27;5.22;;;23.40;99.90;;;;;;5011694;28;20045;-69
2021/05/11 10:46:59;;;;;;;13.32;6.22;;;23.40;99.90;;;;;;5013444;28;20044;-69
2021/05/11 10:49:32;;;;;;;9.63;5.18;;;23.50;99.90;;;;;;4995380;28;20622;-69
2021/05/11 10:52:24;;;;;;;11.65;4.90;;;23.60;99.90;;;;;;5010294;28;20112;-69
2021/05/11 10:55:01;;;;;;;;;;;23.50;99.90;;;;;;5013731;28;20052;-69
2021/05/11 10:57:28;;;;;;;10.57;5.85;;;23.50;99.90;;;;;;5010761;28;19987;-68
2021/05/11 11:00:58;;;;;;;12.18;4.18;;;23.50;99.90;;;;;;5010932;28;20568;-70
2021/05/11 11:03:16;;;;;;;12.65;4.95;;;23.50;99.90;;;;;;4997934;28;20034;-70
2021/05/11 11:05:46;;;;;;;11.23;5.03;;;23.60;99.90;;;;;;5009851;28;20026;-69
2021/05/11 11:08:28;;;;;;;14.68;4.90;;;23.50;99.90;;;;;;5013005;28;20025;-68
2021/05/11 11:11:14;;;;;;;11.10;4.18;;;23.50;99.90;;;;;;5010944;28;20108;-69
2021/05/11 11:13:44;;;;;;;14.00;4.93;;;23.50;99.90;;;;;;5006803;28;20057;-69
2021/05/11 11:16:10;;;;;;;9.35;4.38;;;23.70;99.90;;;;;;4996361;28;20366;-70
2021/05/11 11:18:37;;;;;;;4.60;3.65;;;23.60;99.90;;;;;;4989766;28;20783;-70
2021/05/11 11:23:56;;;;;;;11.27;4.82;;;23.60;99.90;;;;;;5012229;28;20022;-70
2021/05/11 11:26:32;;;;;;;15.65;5.47;;;23.20;99.90;;;;;;5014234;28;20030;-70
2021/05/11 11:29:05;;;;;;;11.90;5.72;;;23.00;99.90;;;;;;5013950;28;20029;-69
2021/05/11 11:31:33;;;;;;;12.25;5.50;;;22.80;99.90;;;;;;4995324;28;20514;-68
2021/05/11 11:34:20;;;;;;;10.60;5.28;;;22.80;99.90;;;;;;4993072;28;20029;-69
2021/05/11 11:36:59;;;;;;;13.02;5.50;;;22.80;99.90;;;;;;5013596;28;20492;-69
2021/05/11 11:39:29;;;;;;;6.30;4.28;;;22.90;99.90;;;;;;4994668;28;20037;-71
2021/05/11 11:41:58;;;;;;;14.63;5.17;;;22.90;99.90;;;;;;4991733;28;20053;-69
2021/05/11 11:44:26;;;;;;;16.40;4.95;;;22.90;99.90;;;;;;5004484;28;20089;-69
2021/05/11 11:47:01;;;;;;;10.90;5.90;;;22.70;99.90;;;;;;4996992;28;20030;-71
2021/05/11 11:49:29;;;;;;;10.45;4.75;;;22.70;99.90;;;;;;5008638;28;20385;-69
2021/05/11 11:52:01;;;;;;;19.00;5.32;;;22.70;99.90;;;;;;5004659;28;20034;-70
2021/05/11 11:59:35;;;;;;;8.43;5.10;;;22.80;99.90;;;;;;5008349;28;20022;-71
2021/05/11 12:02:03;;;;;;;18.20;6.15;;;22.80;99.90;;;;;;5010535;28;20532;-70
2021/05/11 12:04:30;;;;;;;9.77;4.88;;;22.90;99.90;;;;;;4994754;28;20057;-70
2021/05/11 12:07:05;;;;;;;11.48;5.50;;;23.00;99.90;;;;;;5011961;28;20029;-68
2021/05/11 12:09:32;;;;;;;15.50;6.00;;;23.00;99.90;;;;;;4991276;28;20070;-70
2021/05/11 12:12:00;;;;;;;12.20;5.10;;;22.90;99.90;;;;;;4992626;28;20037;-70
2021/05/11 12:14:27;;;;;;;12.07;6.93;;;22.90;99.90;;;;;;5000484;28;20388;-70
2021/05/11 12:16:53;;;;;;;9.63;5.03;;;22.40;99.90;;;;;;5012367;28;20030;-70
2021/05/11 12:19:22;;;;;;;9.63;4.70;;;22.30;99.90;;;;;;5011052;28;20045;-71
2021/05/11 12:22:03;;;;;;;12.32;6.18;;;22.20;99.90;;;;;;5004986;28;20031;-71
2021/05/11 12:24:41;;;;;;;8.45;5.38;;;22.10;99.90;;;;;;5001716;28;20493;-71
2021/05/11 12:27:16;;;;;;;11.20;5.22;;;21.80;99.90;;;;;;5003369;28;20048;-72
2021/05/11 12:30:02;;;;;;;19.02;5.10;;;21.70;99.90;;;;;;5012952;28;20384;-70
2021/05/11 12:32:28;;;;;;;11.05;5.50;;;21.60;99.90;;;;;;5005289;28;20104;-71
2021/05/11 12:35:05;;;;;;;9.65;5.93;;;21.40;99.90;;;;;;5010872;28;20706;-71
2021/05/11 12:37:47;;;;;;;10.20;5.40;;;21.30;99.90;;;;;;5005155;28;20080;-71
2021/05/11 12:40:28;;;;;;;9.25;6.00;;;21.40;99.90;;;;;;5009242;28;20497;-71
2021/05/11 12:42:56;;;;;;;11.43;5.87;;;21.40;99.90;;;;;;5006908;28;20116;-71
2021/05/11 12:45:23;;;;;;;16.02;6.03;;;21.60;99.90;;;;;;4989303;28;20026;-71
2021/05/11 12:48:04;;;;;;;13.38;6.68;;;21.70;99.90;;;;;;5012295;28;20036;-71
2021/05/11 12:50:37;;;;;;;13.33;5.03;;;21.80;99.90;;;;;;4983589;28;20444;-72
2021/05/11 12:56:16;;;;;;;9.57;6.03;;;21.70;99.90;;;;;;5009787;28;20757;-71
2021/05/11 12:58:58;;;;;;;9.63;6.35;;;21.70;99.90;;;;;;5007468;28;20040;-70
2021/05/11 13:01:31;;;;;;;24.33;6.43;;;21.60;99.90;;;;;;5003328;28;20022;-70
2021/05/11 13:31:17;;;;;;;16.67;7.10;;;22.10;99.90;;;;;;5007983;28;20026;-70
2021/05/11 13:33:43;;;;;;;13.50;6.80;;;22.30;99.90;;;;;;4998760;28;20423;-70
2021/05/11 13:36:09;;;;;;;10.45;5.28;;;22.60;99.90;;;;;;5009615;28;20026;-70
2021/05/11 13:38:35;;;;;;;14.00;5.28;;;22.50;99.90;;;;;;5008756;28;20014;-73
2021/05/11 13:41:01;;;;;;;11.65;5.90;;;22.60;99.90;;;;;;5009118;28;20030;-71
2021/05/11 13:43:27;;;;;;;15.35;5.82;;;22.60;99.90;;;;;;5009940;28;20097;-72
2021/05/11 13:45:53;;;;;;;14.10;7.57;;;22.80;99.90;;;;;;5006458;28;20110;-71
2021/05/11 13:48:33;;;;;;;14.13;6.45;;;22.90;99.90;;;;;;4994059;28;20044;-70
2021/05/11 13:51:01;;;;;;;12.15;5.38;;;22.90;99.90;;;;;;4988942;28;20026;-70
2021/05/11 13:53:30;;;;;;;11.57;6.30;;;22.70;99.90;;;;;;5011650;28;20081;-71
2021/05/11 14:04:03;;;;;;;19.88;6.50;;;22.80;99.90;;;;;;5007404;28;20101;-70
2021/05/11 14:06:29;;;;;;;16.20;7.72;;;22.90;99.90;;;;;;4994071;28;20033;-71
2021/05/11 14:08:55;;;;;;;18.63;6.22;;;23.30;99.90;;;;;;4993944;28;20125;-70
2021/05/11 14:11:21;;;;;;;16.13;7.07;;;23.70;99.90;;;;;;4979622;28;20026;-71
2021/05/11 14:13:47;;;;;;;19.63;6.45;;;24.10;99.90;;;;;;5004187;28;20503;-70
2021/05/11 14:16:13;;;;;;;14.50;5.72;;;24.20;99.90;;;;;;4991456;28;20022;-71
2021/05/11 14:18:39;;;;;;;23.13;6.13;;;24.20;99.90;;;;;;5011529;28;20022;-70
2021/05/11 14:21:06;;;;;;;9.45;5.45;;;23.80;99.90;;;;;;4991027;28;20026;-71
2021/05/11 14:23:32;;;;;;;18.10;5.60;;;23.70;99.90;;;;;;5012904;28;20010;-71
2021/05/11 14:25:58;;;;;;;15.32;5.88;;;23.60;99.90;;;;;;5008317;28;20026;-69
2021/05/11 14:28:24;;;;;;;13.07;6.18;;;23.50;99.90;;;;;;5009322;28;20030;-69
2021/05/11 14:30:50;;;;;;;14.88;5.93;;;23.50;99.90;;;;;;4989615;28;20034;-71
2021/05/11 14:33:16;;;;;;;16.38;5.95;;;23.80;99.90;;;;;;5011180;28;20022;-69
2021/05/11 14:35:42;;;;;;;19.15;5.72;;;24.00;99.90;;;;;;5011538;28;20026;-71
2021/05/11 14:38:08;;;;;;;13.48;6.70;;;24.20;99.90;;;;;;5016395;28;20117;-69
2021/05/11 14:40:34;;;;;;;15.25;6.05;;;24.20;99.90;;;;;;5013158;28;20088;-69
2021/05/11 14:43:00;;;;;;;13.43;6.35;;;24.30;99.90;;;;;;5007054;28;20034;-73
2021/05/11 14:45:28;;;;;;;19.02;8.38;;;24.20;99.90;;;;;;5001479;28;20079;-69
2021/05/11 14:47:54;;;;;;;15.40;5.60;;;24.10;99.90;;;;;;5022408;28;20030;-69
2021/05/11 14:50:22;;;;;;;11.43;5.47;;;24.40;99.90;;;;;;5007094;28;20033;-69
2021/05/11 14:52:52;;;;;;;16.02;6.43;;;24.50;99.90;;;;;;5021780;28;20041;-70
2021/05/11 14:55:19;;;;;;;12.75;6.13;;;24.60;99.90;;;;;;5010205;28;20040;-70
2021/05/11 14:57:46;;;;;;;13.48;6.00;;;24.50;99.90;;;;;;4994266;28;20030;-70
2021/05/11 15:00:12;;;;;;;7.88;5.40;;;24.30;99.90;;;;;;4997135;28;20033;-70
2021/05/11 15:02:38;;;;;;;10.77;4.93;;;24.30;99.90;;;;;;5014151;28;20026;-70
2021/05/11 15:05:05;;;;;;;12.88;5.18;;;24.10;99.90;;;;;;4996903;28;20025;-70
2021/05/11 15:07:32;;;;;;;10.75;5.53;;;23.80;99.90;;;;;;5013350;28;20499;-70
2021/05/11 15:09:57;;;;;;;19.83;5.65;;;23.60;99.90;;;;;;4996685;28;20060;-70
2021/05/11 15:12:24;;;;;;;6.93;5.30;;;23.40;99.90;;;;;;4998138;28;20026;-70
2021/05/11 15:14:50;;;;;;;17.77;5.22;;;22.90;99.90;;;;;;4996597;28;20080;-69
2021/05/11 15:19:58;;;;;;;14.70;6.63;;;22.40;99.90;;;;;;5008638;28;20029;-70
2021/05/11 15:22:25;;;;;;;10.75;6.32;;;22.20;99.90;;;;;;5008390;28;20302;-70
2021/05/11 15:24:52;;;;;;;10.02;5.13;;;22.20;99.90;;;;;;5016291;28;20053;-72
2021/05/11 15:27:19;;;;;;;13.73;6.53;;;22.00;99.90;;;;;;5014190;28;20038;-68
2021/05/11 15:29:45;;;;;;;13.80;6.40;;;21.90;99.90;;;;;;4994182;28;20025;-68
2021/05/11 15:32:38;;;;;;;18.73;7.32;;;22.00;99.90;;;;;;5011164;28;20109;-69
2021/05/11 15:35:06;;;;;;;12.38;5.72;;;22.20;99.90;;;;;;4994821;28;20108;-71
2021/05/11 15:37:32;;;;;;;14.40;6.47;;;22.30;99.90;;;;;;4993771;28;20029;-69
2021/05/11 15:39:58;;;;;;;16.50;7.22;;;22.30;99.90;;;;;;5006074;28;20534;-69
2021/05/11 15:42:24;;;;;;;17.63;6.80;;;22.20;99.90;;;;;;5010713;28;20037;-72
2021/05/11 15:44:49;;;;;;;13.07;6.90;;;22.10;99.90;;;;;;4992639;28;20089;-70
2021/05/11 15:47:16;;;;;;;15.02;6.20;;;21.80;99.90;;;;;;5004308;28;20030;-69
2021/05/11 15:49:45;;;;;;;16.45;6.47;;;21.70;99.90;;;;;;4991407;28;20035;-71
2021/05/11 15:52:11;;;;;;;17.40;7.10;;;21.70;99.90;;;;;;5008243;28;20668;-70
2021/05/11 15:54:37;;;;;;;18.17;7.85;;;21.70;99.90;;;;;;5012704;28;20222;-71
2021/05/11 15:57:03;;;;;;;18.88;6.85;;;21.70;99.90;;;;;;5011448;28;20034;-70
2021/05/11 15:59:29;;;;;;;16.25;6.60;;;21.60;99.90;;;;;;4991328;28;20484;-70
2021/05/11 16:01:55;;;;;;;18.27;7.30;;;21.70;99.90;;;;;;4988888;28;20085;-70
2021/05/11 16:04:21;;;;;;;23.88;7.47;;;21.60;99.90;;;;;;5011369;28;20061;-69
2021/05/11 16:06:46;;;;;;;16.13;7.60;;;21.50;99.90;;;;;;4988885;28;20033;-72
2021/05/11 16:09:12;;;;;;;10.43;6.32;;;21.40;99.90;;;;;;5010821;28;20444;-69
2021/05/11 16:11:38;;;;;;;10.82;6.88;;;21.30;99.90;;;;;;4990668;28;20021;-68
2021/05/11 16:14:04;;;;;;;14.75;6.75;;;21.20;99.90;;;;;;5011888;28;20041;-69
2021/05/11 16:16:31;;;;;;;12.85;6.63;;;21.00;99.90;;;;;;5010695;28;20026;-71
2021/05/11 16:18:57;;;;;;;13.63;7.03;;;20.80;99.90;;;;;;5011902;28;20030;-71
2021/05/11 16:21:24;;;;;;;26.67;9.90;;;20.60;99.90;;;;;;5006980;28;20032;-71
2021/05/11 16:23:52;;;;;;;22.88;10.75;;;20.50;99.90;;;;;;5011221;28;20037;-68
2021/05/11 16:26:18;;;;;;;16.05;9.52;;;20.50;99.90;;;;;;4991563;28;20610;-70
2021/05/11 16:28:43;;;;;;;25.58;11.27;;;20.40;99.90;;;;;;5015576;28;20077;-70
2021/05/11 16:31:10;;;;;;;13.02;7.70;;;20.40;99.90;;;;;;5008224;28;20053;-69
2021/05/11 16:33:36;;;;;;;20.98;7.68;;;20.30;99.90;;;;;;4997803;28;20107;-69
2021/05/11 16:36:02;;;;;;;16.85;8.43;;;20.40;99.90;;;;;;5004194;28;20018;-71
2021/05/11 16:38:28;;;;;;;19.42;9.05;;;20.30;99.90;;;;;;4983344;28;20047;-71
2021/05/11 16:40:56;;;;;;;16.88;9.27;;;20.30;99.90;;;;;;4991779;28;20508;-70
2021/05/11 16:43:23;;;;;;;18.02;8.93;;;20.30;99.90;;;;;;5011928;28;20053;-70
2021/05/11 16:45:50;;;;;;;33.00;8.93;;;20.40;99.90;;;;;;4988470;28;20045;-70
2021/05/11 16:48:16;;;;;;;20.95;8.80;;;20.30;99.90;;;;;;5012376;28;20113;-69
2021/05/11 16:50:43;;;;;;;26.48;9.65;;;20.30;99.90;;;;;;5011071;28;20129;-70
2021/05/11 16:53:15;;;;;;;17.13;8.45;;;20.30;99.90;;;;;;5011506;28;20022;-73
2021/05/11 16:55:42;;;;;;;12.80;7.70;;;20.20;99.90;;;;;;5002382;28;20084;-71
2021/05/11 16:58:08;;;;;;;16.15;7.07;;;20.10;99.90;;;;;;4998908;28;20120;-72
2021/05/11 17:00:35;;;;;;;14.50;7.35;;;20.00;99.90;;;;;;4979026;28;20429;-71
2021/05/11 17:03:02;;;;;;;22.88;8.57;;;19.90;99.90;;;;;;4998022;28;20096;-73
2021/05/11 17:05:29;;;;;;;20.67;9.45;;;19.90;99.90;;;;;;4993445;28;20033;-68
2021/05/11 17:07:55;;;;;;;24.50;10.02;;;19.80;99.90;;;;;;4983266;28;20033;-69
2021/05/11 17:10:23;;;;;;;17.23;9.45;;;19.60;99.90;;;;;;5010857;28;20022;-74
2021/05/11 17:12:49;;;;;;;24.65;10.25;;;19.50;99.90;;;;;;5010282;28;20022;-70
2021/05/11 17:15:16;;;;;;;24.27;8.40;;;19.50;99.90;;;;;;4993272;28;20488;-69
2021/05/11 17:17:42;;;;;;;18.75;10.65;;;19.50;99.90;;;;;;5003011;28;20057;-71
2021/05/11 17:20:09;;;;;;;19.52;11.48;;;19.60;99.90;;;;;;4993390;28;20021;-71
2021/05/11 17:22:35;;;;;;;25.65;12.18;;;19.70;99.90;;;;;;5009885;28;20025;-71
2021/05/11 17:25:01;;;;;;;14.55;9.82;;;19.60;99.90;;;;;;4985958;28;20451;-70
2021/05/11 17:27:29;;;;;;;19.88;9.57;;;19.60;99.90;;;;;;4991394;28;20033;-71
2021/05/11 17:29:55;;;;;;;24.73;11.98;;;19.50;99.90;;;;;;4989388;28;20062;-70
2021/05/11 17:32:21;;;;;;;21.67;12.65;;;19.40;99.90;;;;;;5008091;28;20428;-70